Time;durP1;ratioP1;P1;durP2;ratioP2;P2;SDS_P1;SDS_P2;PMS_P1;PMS_P2;Temp;Humidity;BMP_temperature;BMP_pressure;BME280_temperature;BME280_humidity;BME280_pressure;Samples;Min_cycle;Max_cycle;Signal;HPM_P1;HPM_P2
2024/01/19 00:00:02;;;;;;;2.65;1.70;;;;;;;;;;5052869;27;92381;-74
2024/01/19 00:02:30;;;;;;;2.25;1.92;;;;;;;;;;5056483;27;92507;-74
2024/01/19 00:04:57;;;;;;;4.05;2.10;;;;;;;;;;5035429;27;92202;-74
2024/01/19 00:07:23;;;;;;;3.30;2.42;;;;;;;;;;5053246;27;92362;-74
2024/01/19 00:09:50;;;;;;;5.75;3.13;;;;;;;;;;5052739;27;92533;-74
2024/01/19 00:12:16;;;;;;;3.03;1.80;;;;;;;;;;5051288;27;94530;-74
2024/01/19 00:14:43;;;;;;;2.35;1.88;;;;;;;;;;5052488;27;92926;-74
2024/01/19 00:17:09;;;;;;;5.20;1.88;;;;;;;;;;5053360;27;93069;-74
2024/01/19 00:19:36;;;;;;;4.15;1.85;;;;;;;;;;5052826;27;92390;-75
2024/01/19 00:22:02;;;;;;;3.70;1.95;;;;;;;;;;5052202;27;93177;-73
2024/01/19 00:24:29;;;;;;;4.15;1.77;;;;;;;;;;5056286;27;92930;-74
2024/01/19 00:27:13;;;;;;;2.35;1.60;;;;;;;;;;5050024;27;92524;-74
2024/01/19 00:29:41;;;;;;;2.63;1.63;;;;;;;;;;5053426;27;91609;-74
2024/01/19 00:32:07;;;;;;;2.75;1.77;;;;;;;;;;5056440;27;92327;-74
2024/01/19 00:34:34;;;;;;;1.80;1.63;;;;;;;;;;5052200;27;92420;-75
2024/01/19 00:37:01;;;;;;;3.38;1.65;;;;;;;;;;5055333;27;94823;-74
2024/01/19 00:39:27;;;;;;;3.85;1.77;;;;;;;;;;5037810;27;93387;-75
2024/01/19 00:41:53;;;;;;;2.80;1.73;;;;;;;;;;5056388;27;92499;-74
2024/01/19 00:44:20;;;;;;;2.92;1.65;;;;;;;;;;5041037;27;93611;-74
2024/01/19 00:46:47;;;;;;;4.45;2.08;;;;;;;;;;5055140;27;92298;-74
2024/01/19 00:49:14;;;;;;;4.30;1.58;;;;;;;;;;5037776;27;93781;-74
2024/01/19 00:51:40;;;;;;;3.20;1.08;;;;;;;;;;5056218;27;92335;-74
2024/01/19 00:54:07;;;;;;;5.53;1.70;;;;;;;;;;5028324;27;92029;-74
2024/01/19 00:56:34;;;;;;;4.00;1.77;;;;;;;;;;5056372;27;92439;-74
2024/01/19 00:59:00;;;;;;;4.63;2.30;;;;;;;;;;5054972;27;92519;-74
2024/01/19 01:01:27;;;;;;;4.05;2.05;;;;;;;;;;5054116;27;94680;-75
2024/01/19 01:03:55;;;;;;;3.33;1.70;;;;;;;;;;5055713;27;94088;-74
2024/01/19 01:06:21;;;;;;;2.30;1.60;;;;;;;;;;5059452;27;92524;-74
2024/01/19 01:08:48;;;;;;;2.40;1.50;;;;;;;;;;5037320;27;92632;-74
2024/01/19 01:11:14;;;;;;;2.65;1.77;;;;;;;;;;5055773;27;92406;-74
2024/01/19 01:13:41;;;;;;;6.78;1.55;;;;;;;;;;5055674;27;94208;-74
2024/01/19 01:16:08;;;;;;;3.17;1.30;;;;;;;;;;5055783;27;92120;-74
2024/01/19 01:18:34;;;;;;;1.30;1.20;;;;;;;;;;5056794;27;92310;-74
2024/01/19 01:21:01;;;;;;;3.58;1.55;;;;;;;;;;5055551;27;92442;-74
2024/01/19 01:23:28;;;;;;;5.75;1.48;;;;;;;;;;5055847;27;92672;-73
2024/01/19 01:25:54;;;;;;;2.13;1.27;;;;;;;;;;5035763;27;94775;-74
2024/01/19 01:28:21;;;;;;;1.95;1.30;;;;;;;;;;5059024;27;92994;-73
2024/01/19 01:30:47;;;;;;;3.72;1.20;;;;;;;;;;5037401;27;93775;-74
2024/01/19 01:33:14;;;;;;;1.15;1.05;;;;;;;;;;5054372;27;93395;-75
2024/01/19 01:35:40;;;;;;;2.35;1.40;;;;;;;;;;5055321;27;93498;-75
2024/01/19 01:38:07;;;;;;;2.28;1.40;;;;;;;;;;5035497;27;93927;-75
2024/01/19 01:40:33;;;;;;;2.33;1.00;;;;;;;;;;5054929;27;94224;-75
2024/01/19 01:43:01;;;;;;;2.30;1.17;;;;;;;;;;5033133;28;92078;-75
2024/01/19 01:45:28;;;;;;;2.58;1.00;;;;;;;;;;5051269;27;92509;-75
2024/01/19 01:47:55;;;;;;;2.40;1.52;;;;;;;;;;5054965;27;92823;-75
2024/01/19 01:50:22;;;;;;;2.00;1.30;;;;;;;;;;5039094;27;94863;-75
2024/01/19 01:52:49;;;;;;;0.80;0.80;;;;;;;;;;5036804;27;95327;-75
2024/01/19 01:55:16;;;;;;;1.08;0.98;;;;;;;;;;5036962;27;93028;-75
2024/01/19 01:57:43;;;;;;;1.27;0.80;;;;;;;;;;5055269;27;93112;-74
2024/01/19 02:00:10;;;;;;;1.55;0.93;;;;;;;;;;5054835;27;92383;-75
2024/01/19 02:02:37;;;;;;;1.52;1.00;;;;;;;;;;5054952;27;93812;-74
2024/01/19 02:05:05;;;;;;;3.58;0.80;;;;;;;;;;5055012;27;93313;-74
2024/01/19 02:07:31;;;;;;;2.80;0.90;;;;;;;;;;5055945;27;92904;-74
2024/01/19 02:09:58;;;;;;;1.83;1.42;;;;;;;;;;5054416;27;93838;-75
2024/01/19 02:12:25;;;;;;;1.17;0.77;;;;;;;;;;5049275;27;93061;-74
2024/01/19 02:14:52;;;;;;;0.85;0.82;;;;;;;;;;5052117;27;94755;-74
2024/01/19 02:17:18;;;;;;;1.65;0.90;;;;;;;;;;5054178;27;92049;-74
2024/01/19 02:19:45;;;;;;;0.73;0.68;;;;;;;;;;5054445;27;94014;-74
2024/01/19 02:22:11;;;;;;;0.90;0.90;;;;;;;;;;5054302;27;92950;-73
2024/01/19 02:24:38;;;;;;;0.95;0.70;;;;;;;;;;5054843;27;92460;-74
2024/01/19 02:27:05;;;;;;;2.17;0.77;;;;;;;;;;5033176;27;94819;-74
2024/01/19 02:29:31;;;;;;;1.42;0.77;;;;;;;;;;5036191;27;95391;-73
2024/01/19 02:31:58;;;;;;;1.50;0.70;;;;;;;;;;5055139;27;92421;-74
2024/01/19 02:34:24;;;;;;;0.70;0.70;;;;;;;;;;5039110;27;92964;-74
2024/01/19 02:36:51;;;;;;;0.82;0.70;;;;;;;;;;5055331;27;93305;-74
2024/01/19 02:39:17;;;;;;;1.15;0.70;;;;;;;;;;5052622;27;94826;-74
2024/01/19 02:41:45;;;;;;;3.15;0.90;;;;;;;;;;5054466;27;93936;-74
2024/01/19 02:44:12;;;;;;;1.13;0.80;;;;;;;;;;5053646;27;92515;-74
2024/01/19 02:46:38;;;;;;;5.95;0.70;;;;;;;;;;5054638;27;92970;-73
2024/01/19 02:49:05;;;;;;;2.03;0.98;;;;;;;;;;5054660;27;92245;-74
2024/01/19 02:51:31;;;;;;;0.60;0.60;;;;;;;;;;5054635;27;92454;-74
2024/01/19 02:53:58;;;;;;;3.08;0.65;;;;;;;;;;5056217;27;92440;-74
2024/01/19 02:56:24;;;;;;;1.15;0.60;;;;;;;;;;5054496;27;93718;-74
2024/01/19 02:58:51;;;;;;;1.23;0.73;;;;;;;;;;5054384;27;92652;-74
2024/01/19 03:01:18;;;;;;;1.02;0.55;;;;;;;;;;5053072;27;92895;-74
2024/01/19 03:03:44;;;;;;;3.22;0.63;;;;;;;;;;5033696;27;97745;-74
2024/01/19 03:06:11;;;;;;;2.35;0.80;;;;;;;;;;5002584;27;93871;-74
2024/01/19 03:08:38;;;;;;;2.40;1.17;;;;;;;;;;5054170;27;92804;-74
2024/01/19 03:11:04;;;;;;;2.10;0.60;;;;;;;;;;5053739;27;92415;-74
2024/01/19 03:13:31;;;;;;;1.48;0.75;;;;;;;;;;5052420;27;92157;-73
2024/01/19 03:15:58;;;;;;;1.98;0.60;;;;;;;;;;5056990;27;92405;-74
2024/01/19 03:18:24;;;;;;;4.93;0.85;;;;;;;;;;5053654;27;92441;-73
2024/01/19 03:20:51;;;;;;;0.77;0.60;;;;;;;;;;5054679;27;92236;-74
2024/01/19 03:23:17;;;;;;;0.80;0.50;;;;;;;;;;5053638;27;92308;-73
2024/01/19 03:25:44;;;;;;;2.22;0.88;;;;;;;;;;5053963;27;93046;-74
2024/01/19 03:28:10;;;;;;;3.05;0.95;;;;;;;;;;5052352;27;94835;-75
2024/01/19 03:30:37;;;;;;;2.47;0.75;;;;;;;;;;5053702;27;93543;-74
2024/01/19 03:33:03;;;;;;;0.90;0.80;;;;;;;;;;5035644;27;92955;-74
2024/01/19 03:35:30;;;;;;;1.15;0.77;;;;;;;;;;5022768;27;93046;-75
2024/01/19 03:37:56;;;;;;;0.85;0.70;;;;;;;;;;5038643;27;93532;-74
2024/01/19 03:40:23;;;;;;;1.08;1.05;;;;;;;;;;5053426;27;92200;-73
2024/01/19 03:42:49;;;;;;;2.83;1.00;;;;;;;;;;5053461;27;92063;-75
2024/01/19 03:45:16;;;;;;;3.58;1.00;;;;;;;;;;5053753;27;92898;-75
2024/01/19 03:47:43;;;;;;;2.38;0.95;;;;;;;;;;5053667;27;92352;-75
2024/01/19 03:50:10;;;;;;;1.20;1.02;;;;;;;;;;5053839;27;93220;-75
2024/01/19 03:52:37;;;;;;;1.67;0.88;;;;;;;;;;5051731;27;94894;-74
2024/01/19 03:55:05;;;;;;;1.45;0.85;;;;;;;;;;5039585;27;95386;-74
2024/01/19 03:57:31;;;;;;;2.28;1.08;;;;;;;;;;5053309;27;93858;-74
2024/01/19 03:59:57;;;;;;;3.15;1.00;;;;;;;;;;5056403;27;92395;-74
2024/01/19 04:02:24;;;;;;;2.97;0.90;;;;;;;;;;5054023;27;92998;-73
2024/01/19 04:04:51;;;;;;;2.10;1.00;;;;;;;;;;5053490;27;92433;-74
2024/01/19 04:07:17;;;;;;;1.35;1.23;;;;;;;;;;5057441;27;92301;-74
2024/01/19 04:09:44;;;;;;;2.72;1.00;;;;;;;;;;5057017;27;92193;-74
2024/01/19 04:12:11;;;;;;;1.42;0.98;;;;;;;;;;5038828;27;92498;-74
2024/01/19 04:14:39;;;;;;;0.90;0.90;;;;;;;;;;5037655;27;92387;-74
2024/01/19 04:17:05;;;;;;;1.20;0.93;;;;;;;;;;5055161;27;95586;-74
2024/01/19 04:19:32;;;;;;;1.75;1.15;;;;;;;;;;5037966;27;94323;-75
2024/01/19 04:21:58;;;;;;;3.17;1.00;;;;;;;;;;5057988;27;92430;-74
2024/01/19 04:24:24;;;;;;;3.95;1.20;;;;;;;;;;5056410;27;92095;-74
2024/01/19 04:26:51;;;;;;;1.20;0.80;;;;;;;;;;5056461;27;92735;-74
2024/01/19 04:29:17;;;;;;;5.15;1.10;;;;;;;;;;5038576;27;93594;-74
2024/01/19 04:31:44;;;;;;;1.70;1.00;;;;;;;;;;5024664;27;93114;-74
2024/01/19 04:34:11;;;;;;;3.20;1.00;;;;;;;;;;5032954;28;94101;-74
2024/01/19 04:36:37;;;;;;;1.90;1.15;;;;;;;;;;5048992;27;92416;-74
2024/01/19 04:39:04;;;;;;;4.10;1.02;;;;;;;;;;5056515;27;92183;-74
2024/01/19 04:41:31;;;;;;;1.92;1.00;;;;;;;;;;5054799;27;94889;-74
2024/01/19 04:43:57;;;;;;;2.70;1.00;;;;;;;;;;5058998;27;92173;-74
2024/01/19 04:46:24;;;;;;;1.55;0.93;;;;;;;;;;5056457;27;92237;-74
2024/01/19 04:48:50;;;;;;;1.27;0.90;;;;;;;;;;5056688;27;93416;-74
2024/01/19 04:51:17;;;;;;;3.72;1.08;;;;;;;;;;5056137;27;92487;-74
2024/01/19 04:53:43;;;;;;;1.95;1.15;;;;;;;;;;5055860;27;92613;-74
2024/01/19 04:56:10;;;;;;;1.67;0.90;;;;;;;;;;5055801;27;93070;-74
2024/01/19 04:58:37;;;;;;;2.97;1.45;;;;;;;;;;5056791;27;92960;-74
2024/01/19 05:01:03;;;;;;;0.85;0.73;;;;;;;;;;5056122;27;92433;-74
2024/01/19 05:03:30;;;;;;;2.53;1.17;;;;;;;;;;5059141;27;92443;-73
2024/01/19 05:05:57;;;;;;;0.85;0.82;;;;;;;;;;5046180;27;94511;-73
2024/01/19 05:08:23;;;;;;;3.05;1.55;;;;;;;;;;5020997;27;93944;-74
2024/01/19 05:10:50;;;;;;;2.45;1.00;;;;;;;;;;5055682;27;93053;-74
2024/01/19 05:13:16;;;;;;;3.50;1.05;;;;;;;;;;5056340;27;92497;-75
2024/01/19 05:15:43;;;;;;;3.42;0.90;;;;;;;;;;5055672;27;93141;-74
2024/01/19 05:18:09;;;;;;;2.55;0.95;;;;;;;;;;5054618;27;92772;-74
2024/01/19 05:20:39;;;;;;;3.03;1.35;;;;;;;;;;5055467;27;93077;-74
2024/01/19 05:23:06;;;;;;;3.83;1.05;;;;;;;;;;5056254;27;92841;-75
2024/01/19 05:25:33;;;;;;;1.15;0.90;;;;;;;;;;5058824;27;92804;-75
2024/01/19 05:28:00;;;;;;;1.48;1.00;;;;;;;;;;5055486;27;92514;-74
2024/01/19 05:30:26;;;;;;;1.13;0.85;;;;;;;;;;5052029;27;94751;-74
2024/01/19 05:32:53;;;;;;;2.00;0.80;;;;;;;;;;5055414;27;93910;-74
2024/01/19 05:35:19;;;;;;;3.55;1.23;;;;;;;;;;5055181;27;92407;-74
2024/01/19 05:37:46;;;;;;;2.67;0.80;;;;;;;;;;5055644;27;92377;-74
2024/01/19 05:40:12;;;;;;;1.23;0.68;;;;;;;;;;5055367;27;92850;-74
2024/01/19 05:42:40;;;;;;;1.13;0.77;;;;;;;;;;5055450;27;93272;-75
2024/01/19 05:45:07;;;;;;;1.70;0.75;;;;;;;;;;5055554;27;92772;-75
2024/01/19 05:47:35;;;;;;;1.58;0.65;;;;;;;;;;5040205;27;93199;-76
2024/01/19 05:50:05;;;;;;;;;;;;;;;;;;5055697;27;93503;-75
2024/01/19 05:52:32;;;;;;;2.33;1.08;;;;;;;;;;5055258;27;92404;-76
2024/01/19 05:54:58;;;;;;;1.02;0.93;;;;;;;;;;5053526;27;94700;-75
2024/01/19 05:57:25;;;;;;;2.42;0.70;;;;;;;;;;5055072;27;92514;-75
2024/01/19 05:59:52;;;;;;;0.82;0.80;;;;;;;;;;5036502;27;94496;-75
2024/01/19 06:02:20;;;;;;;1.40;0.63;;;;;;;;;;5055519;27;91998;-75
2024/01/19 06:04:46;;;;;;;0.88;0.75;;;;;;;;;;5054868;27;92090;-75
2024/01/19 06:07:13;;;;;;;1.95;0.70;;;;;;;;;;5055250;27;92303;-74
2024/01/19 06:09:39;;;;;;;4.22;0.80;;;;;;;;;;5057711;27;92483;-74
2024/01/19 06:12:07;;;;;;;1.30;0.77;;;;;;;;;;5036760;27;93952;-74
2024/01/19 06:14:33;;;;;;;2.28;1.00;;;;;;;;;;5031578;27;94233;-74
2024/01/19 06:17:02;;;;;;;1.10;0.73;;;;;;;;;;5054852;27;92925;-74
2024/01/19 06:19:28;;;;;;;0.93;0.70;;;;;;;;;;5034939;27;95156;-75
2024/01/19 06:21:54;;;;;;;1.88;0.70;;;;;;;;;;5053521;27;93447;-74
2024/01/19 06:24:24;;;;;;;2.05;0.95;;;;;;;;;;5053976;27;92420;-75
2024/01/19 06:26:50;;;;;;;1.17;0.75;;;;;;;;;;5054998;27;92405;-74
2024/01/19 06:29:17;;;;;;;1.25;0.73;;;;;;;;;;5054417;27;92386;-74
2024/01/19 06:31:43;;;;;;;2.00;0.68;;;;;;;;;;5057570;27;94059;-74
2024/01/19 06:34:11;;;;;;;1.92;0.93;;;;;;;;;;5054638;27;93104;-77
2024/01/19 06:36:37;;;;;;;0.60;0.60;;;;;;;;;;5037089;27;92231;-75
2024/01/19 06:39:04;;;;;;;0.70;0.70;;;;;;;;;;5036131;27;92364;-75
2024/01/19 06:41:31;;;;;;;1.85;0.90;;;;;;;;;;5036321;27;92408;-75
2024/01/19 06:43:57;;;;;;;0.70;0.70;;;;;;;;;;5052171;27;94756;-76
2024/01/19 06:46:24;;;;;;;1.10;0.90;;;;;;;;;;5054200;27;96356;-75
2024/01/19 06:48:50;;;;;;;3.20;0.73;;;;;;;;;;5054580;27;93086;-75
2024/01/19 06:51:18;;;;;;;1.10;0.70;;;;;;;;;;5054494;27;92393;-76
2024/01/19 06:53:44;;;;;;;1.73;0.80;;;;;;;;;;5056489;27;92550;-75
2024/01/19 06:56:11;;;;;;;1.00;0.70;;;;;;;;;;5052793;27;92645;-75
2024/01/19 06:58:37;;;;;;;2.63;0.85;;;;;;;;;;5035159;27;93481;-76
2024/01/19 07:01:04;;;;;;;0.63;0.63;;;;;;;;;;5053969;27;92229;-75
2024/01/19 07:03:31;;;;;;;2.20;0.77;;;;;;;;;;5053201;27;91871;-75
2024/01/19 07:05:57;;;;;;;4.38;0.98;;;;;;;;;;5053508;27;92470;-76
2024/01/19 07:08:24;;;;;;;0.65;0.65;;;;;;;;;;5034390;27;94763;-75
2024/01/19 07:10:51;;;;;;;2.47;0.60;;;;;;;;;;5053031;27;93782;-75
2024/01/19 07:13:17;;;;;;;0.70;0.70;;;;;;;;;;5056739;27;92951;-74
2024/01/19 07:15:44;;;;;;;2.65;1.08;;;;;;;;;;5053970;27;92356;-75
2024/01/19 07:18:11;;;;;;;5.20;0.68;;;;;;;;;;5053677;27;92611;-75
2024/01/19 07:20:37;;;;;;;1.35;0.88;;;;;;;;;;5052467;27;92353;-74
2024/01/19 07:23:04;;;;;;;4.75;1.08;;;;;;;;;;5051990;27;92786;-75
2024/01/19 07:25:31;;;;;;;2.00;0.85;;;;;;;;;;5053018;27;92757;-75
2024/01/19 07:27:58;;;;;;;1.75;0.90;;;;;;;;;;5052105;27;92766;-75
2024/01/19 07:30:24;;;;;;;0.85;0.85;;;;;;;;;;5050787;27;92553;-76
2024/01/19 07:32:51;;;;;;;1.45;0.73;;;;;;;;;;5049472;27;94818;-77
2024/01/19 07:35:32;;;;;;;1.60;0.77;;;;;;;;;;5055054;27;92436;-76
2024/01/19 07:37:58;;;;;;;0.80;0.80;;;;;;;;;;5052848;27;92918;-76
2024/01/19 07:40:26;;;;;;;1.52;0.88;;;;;;;;;;5035189;27;94822;-76
2024/01/19 07:42:53;;;;;;;2.13;0.93;;;;;;;;;;5055802;27;92475;-76
2024/01/19 07:45:19;;;;;;;2.83;0.98;;;;;;;;;;5055715;27;92785;-77
2024/01/19 07:47:45;;;;;;;0.98;0.77;;;;;;;;;;5056693;27;92380;-76
2024/01/19 07:50:12;;;;;;;1.45;0.63;;;;;;;;;;5057664;27;91968;-76
2024/01/19 07:52:39;;;;;;;1.08;0.98;;;;;;;;;;5056819;27;92248;-76
2024/01/19 07:55:05;;;;;;;1.50;1.13;;;;;;;;;;5056897;27;92346;-77
2024/01/19 07:57:32;;;;;;;8.68;0.90;;;;;;;;;;5058609;27;95845;-76
2024/01/19 07:59:58;;;;;;;3.60;1.50;;;;;;;;;;5056553;27;92416;-76
2024/01/19 08:02:25;;;;;;;1.77;0.90;;;;;;;;;;5056976;27;92423;-76
2024/01/19 08:04:52;;;;;;;2.03;0.90;;;;;;;;;;5038088;27;94957;-76
2024/01/19 08:07:18;;;;;;;5.75;1.02;;;;;;;;;;5056590;27;92404;-76
2024/01/19 08:09:45;;;;;;;1.00;0.70;;;;;;;;;;5033984;27;92642;-76
2024/01/19 08:12:11;;;;;;;1.33;0.95;;;;;;;;;;5038588;27;92934;-76
2024/01/19 08:14:38;;;;;;;2.75;1.00;;;;;;;;;;5021380;27;93090;-76
2024/01/19 08:17:05;;;;;;;0.85;0.82;;;;;;;;;;5056099;27;92418;-76
2024/01/19 08:19:31;;;;;;;3.70;0.95;;;;;;;;;;5059970;27;92502;-77
2024/01/19 08:21:57;;;;;;;1.33;0.93;;;;;;;;;;5054695;27;94776;-75
2024/01/19 08:24:24;;;;;;;5.15;1.30;;;;;;;;;;5051629;27;94490;-75
2024/01/19 08:26:50;;;;;;;1.85;0.93;;;;;;;;;;5055848;27;93116;-74
2024/01/19 08:29:17;;;;;;;1.10;0.70;;;;;;;;;;5055384;27;92919;-75
2024/01/19 08:31:43;;;;;;;3.50;0.70;;;;;;;;;;5055325;27;92489;-75
2024/01/19 08:34:13;;;;;;;1.42;0.82;;;;;;;;;;5053954;27;92838;-74
2024/01/19 08:36:40;;;;;;;1.65;0.93;;;;;;;;;;5055141;27;92576;-74
2024/01/19 08:39:07;;;;;;;1.10;1.00;;;;;;;;;;5054820;27;92785;-75
2024/01/19 08:41:43;;;;;;;7.65;1.38;;;;;;;;;;5068125;27;93298;-75
2024/01/19 08:44:13;;;;;;;2.83;1.52;;;;;;;;;;5031468;27;93376;-74
2024/01/19 08:46:43;;;;;;;3.47;1.48;;;;;;;;;;5053339;27;94826;-74
2024/01/19 08:49:10;;;;;;;1.25;1.15;;;;;;;;;;5055325;27;93233;-73
2024/01/19 08:51:37;;;;;;;12.23;1.08;;;;;;;;;;5055277;27;92794;-74
2024/01/19 08:54:04;;;;;;;1.23;0.95;;;;;;;;;;5055214;27;92376;-74
2024/01/19 08:56:31;;;;;;;4.90;1.35;;;;;;;;;;5054401;27;93593;-74
2024/01/19 08:58:58;;;;;;;4.50;1.50;;;;;;;;;;5054676;27;92486;-74
2024/01/19 09:01:24;;;;;;;4.13;1.20;;;;;;;;;;5054784;27;94024;-74
2024/01/19 09:03:51;;;;;;;5.78;1.35;;;;;;;;;;5058348;27;91750;-74
2024/01/19 09:06:17;;;;;;;3.03;1.13;;;;;;;;;;5055140;27;92174;-73
2024/01/19 09:08:44;;;;;;;2.28;0.90;;;;;;;;;;5054938;27;92813;-74
2024/01/19 09:11:11;;;;;;;3.40;1.48;;;;;;;;;;5053616;27;94818;-74
2024/01/19 09:13:38;;;;;;;0.80;0.80;;;;;;;;;;5055293;27;92405;-74
2024/01/19 09:16:08;;;;;;;2.05;1.15;;;;;;;;;;5054688;27;92863;-75
2024/01/19 09:18:36;;;;;;;4.57;1.20;;;;;;;;;;5036938;27;92324;-75
2024/01/19 09:21:03;;;;;;;4.65;1.33;;;;;;;;;;5054843;27;93380;-74
2024/01/19 09:23:29;;;;;;;3.28;1.40;;;;;;;;;;5039711;27;92507;-74
2024/01/19 09:25:56;;;;;;;1.38;1.20;;;;;;;;;;5054736;27;93172;-75
2024/01/19 09:28:22;;;;;;;2.90;0.90;;;;;;;;;;5036780;27;93091;-74
2024/01/19 09:30:49;;;;;;;4.60;1.17;;;;;;;;;;5036724;27;92489;-74
2024/01/19 09:33:16;;;;;;;3.50;1.50;;;;;;;;;;5054712;27;93283;-74
2024/01/19 09:35:42;;;;;;;1.65;0.90;;;;;;;;;;5052017;27;96077;-74
2024/01/19 09:38:09;;;;;;;2.08;1.30;;;;;;;;;;5054908;27;93954;-74
2024/01/19 09:40:35;;;;;;;2.50;1.08;;;;;;;;;;5054442;27;93375;-74
2024/01/19 09:43:02;;;;;;;1.73;1.20;;;;;;;;;;5054570;27;92504;-74
2024/01/19 09:45:34;;;;;;;3.58;0.73;;;;;;;;;;5057621;27;92375;-74
2024/01/19 09:48:20;;;;;;;2.58;1.45;;;;;;;;;;5033744;27;92742;-74
2024/01/19 09:50:47;;;;;;;1.35;1.00;;;;;;;;;;5052526;27;92552;-74
2024/01/19 09:53:32;;;;;;;2.33;1.30;;;;;;;;;;5054748;27;92211;-75
2024/01/19 09:55:59;;;;;;;2.42;1.63;;;;;;;;;;5013419;27;92504;-74
2024/01/19 09:58:27;;;;;;;1.25;0.95;;;;;;;;;;5040116;27;92744;-74
2024/01/19 10:00:54;;;;;;;2.45;1.27;;;;;;;;;;5052540;27;96170;-74
2024/01/19 10:03:22;;;;;;;2.58;0.93;;;;;;;;;;5053169;27;92459;-75
2024/01/19 10:05:51;;;;;;;4.82;1.63;;;;;;;;;;5053877;27;92347;-75
2024/01/19 10:08:17;;;;;;;5.45;1.55;;;;;;;;;;5057112;27;92495;-75
2024/01/19 10:10:44;;;;;;;1.80;1.02;;;;;;;;;;5054117;27;92428;-74
2024/01/19 10:13:11;;;;;;;2.08;1.05;;;;;;;;;;5053842;27;92889;-74
2024/01/19 10:15:37;;;;;;;13.45;1.50;;;;;;;;;;5053965;27;92864;-75
2024/01/19 10:18:05;;;;;;;4.75;1.35;;;;;;;;;;5053710;27;92127;-74
2024/01/19 10:20:32;;;;;;;2.63;1.20;;;;;;;;;;5053959;27;92472;-75
2024/01/19 10:23:18;;;;;;;2.17;1.17;;;;;;;;;;5052425;27;92518;-75
2024/01/19 10:25:45;;;;;;;11.85;1.55;;;;;;;;;;5033283;27;94805;-74
2024/01/19 10:28:28;;;;;;;3.95;1.50;;;;;;;;;;5054327;27;93805;-74
2024/01/19 10:31:05;;;;;;;6.80;0.98;;;;;;;;;;5055030;27;93493;-73
2024/01/19 10:33:31;;;;;;;4.95;1.65;;;;;;;;;;5054113;27;92506;-72
2024/01/19 10:35:58;;;;;;;7.43;1.10;;;;;;;;;;5052797;27;93109;-74
2024/01/19 10:38:24;;;;;;;2.72;1.50;;;;;;;;;;5035738;27;94253;-73
2024/01/19 10:40:51;;;;;;;3.08;0.93;;;;;;;;;;5034932;27;93453;-73
2024/01/19 10:43:21;;;;;;;6.93;1.20;;;;;;;;;;5054573;27;91980;-72
2024/01/19 10:45:47;;;;;;;3.00;1.10;;;;;;;;;;5054671;27;92397;-72
2024/01/19 10:48:25;;;;;;;3.50;1.95;;;;;;;;;;5054584;27;94551;-72
2024/01/19 10:51:00;;;;;;;14.98;4.88;;;;;;;;;;5052898;27;94849;-73
2024/01/19 10:53:27;;;;;;;13.45;4.85;;;;;;;;;;5037456;27;96499;-73
2024/01/19 10:55:53;;;;;;;9.00;3.58;;;;;;;;;;5041644;27;92488;-73
2024/01/19 10:58:20;;;;;;;6.43;3.45;;;;;;;;;;5051729;27;92638;-73
2024/01/19 11:00:46;;;;;;;9.93;3.50;;;;;;;;;;5049179;27;93261;-74
2024/01/19 11:03:13;;;;;;;8.15;3.00;;;;;;;;;;5050939;27;92403;-73
2024/01/19 11:05:40;;;;;;;6.18;2.97;;;;;;;;;;5050440;27;92546;-74
2024/01/19 11:08:07;;;;;;;7.75;3.28;;;;;;;;;;5051094;27;92104;-73
2024/01/19 11:10:33;;;;;;;8.80;2.83;;;;;;;;;;5051459;27;92413;-73
2024/01/19 11:13:01;;;;;;;5.95;3.03;;;;;;;;;;5053892;27;92425;-73
2024/01/19 11:15:33;;;;;;;11.88;3.40;;;;;;;;;;5045714;27;95029;-73
2024/01/19 11:18:01;;;;;;;6.30;2.72;;;;;;;;;;5046467;27;94284;-73
2024/01/19 11:20:29;;;;;;;4.82;2.28;;;;;;;;;;5049847;27;92531;-73
2024/01/19 11:22:55;;;;;;;10.23;2.90;;;;;;;;;;5050643;27;92527;-73
2024/01/19 11:25:25;;;;;;;6.55;2.38;;;;;;;;;;5049781;27;93077;-73
2024/01/19 11:27:56;;;;;;;9.57;2.53;;;;;;;;;;5032191;27;92605;-73
2024/01/19 11:30:39;;;;;;;2.88;2.22;;;;;;;;;;5051392;27;93071;-73
2024/01/19 11:33:15;;;;;;;4.30;2.08;;;;;;;;;;5051173;27;92568;-73
2024/01/19 11:35:42;;;;;;;5.63;2.17;;;;;;;;;;5053020;27;93064;-74
2024/01/19 11:38:09;;;;;;;6.88;1.92;;;;;;;;;;5051822;27;92662;-73
2024/01/19 11:40:35;;;;;;;4.82;1.77;;;;;;;;;;5050421;27;95678;-75
2024/01/19 11:43:03;;;;;;;2.63;1.75;;;;;;;;;;5050929;27;92377;-74
2024/01/19 11:45:36;;;;;;;6.85;2.08;;;;;;;;;;5054067;27;92580;-74
2024/01/19 11:48:03;;;;;;;6.35;2.38;;;;;;;;;;5051588;27;93105;-74
2024/01/19 11:50:47;;;;;;;3.70;2.03;;;;;;;;;;5051704;27;92935;-74
2024/01/19 11:53:14;;;;;;;3.42;1.90;;;;;;;;;;5050876;27;93135;-74
2024/01/19 11:55:48;;;;;;;3.97;1.95;;;;;;;;;;5024150;27;93158;-74
2024/01/19 11:58:25;;;;;;;5.13;1.70;;;;;;;;;;5054068;27;92986;-74
2024/01/19 12:00:52;;;;;;;2.60;1.58;;;;;;;;;;5052635;27;93172;-75
2024/01/19 12:03:20;;;;;;;12.38;2.85;;;;;;;;;;5034433;27;94836;-75
2024/01/19 12:05:47;;;;;;;3.40;1.80;;;;;;;;;;5050684;27;94870;-74
2024/01/19 12:08:14;;;;;;;4.55;1.75;;;;;;;;;;5052273;27;93206;-74
2024/01/19 12:10:42;;;;;;;3.58;1.73;;;;;;;;;;5052319;27;93252;-75
2024/01/19 12:13:08;;;;;;;5.47;2.20;;;;;;;;;;5049305;27;92419;-74
2024/01/19 12:15:35;;;;;;;4.05;1.55;;;;;;;;;;5033318;27;92543;-75
2024/01/19 12:18:04;;;;;;;6.90;2.17;;;;;;;;;;5033818;27;92434;-75
2024/01/19 12:20:31;;;;;;;3.55;1.65;;;;;;;;;;5052356;27;92532;-75
2024/01/19 12:22:57;;;;;;;2.25;1.40;;;;;;;;;;5052752;27;92077;-74
2024/01/19 12:25:25;;;;;;;5.80;1.80;;;;;;;;;;5049856;27;92488;-74
2024/01/19 12:28:02;;;;;;;3.88;2.05;;;;;;;;;;5054518;27;92396;-74
2024/01/19 12:30:32;;;;;;;5.28;1.92;;;;;;;;;;5053604;27;94735;-74
2024/01/19 12:33:12;;;;;;;3.97;1.48;;;;;;;;;;5053713;27;95257;-74
2024/01/19 12:35:39;;;;;;;4.10;1.65;;;;;;;;;;5055475;27;94308;-74
2024/01/19 12:38:05;;;;;;;5.30;1.95;;;;;;;;;;5056289;27;92467;-74
2024/01/19 12:40:33;;;;;;;3.83;1.63;;;;;;;;;;5056318;27;93057;-74
2024/01/19 12:43:03;;;;;;;4.05;1.60;;;;;;;;;;5058571;27;92441;-74
2024/01/19 12:45:29;;;;;;;2.72;1.55;;;;;;;;;;5047190;27;92180;-75
2024/01/19 12:47:59;;;;;;;5.43;2.03;;;;;;;;;;5056520;27;92590;-74
2024/01/19 12:50:31;;;;;;;3.50;1.58;;;;;;;;;;5055770;27;92220;-74
2024/01/19 12:52:57;;;;;;;3.60;1.63;;;;;;;;;;5055916;27;92338;-74
2024/01/19 12:55:27;;;;;;;2.65;1.30;;;;;;;;;;5053838;27;96257;-75
2024/01/19 12:57:53;;;;;;;6.05;1.65;;;;;;;;;;5055264;27;92518;-74
2024/01/19 13:00:22;;;;;;;4.20;1.58;;;;;;;;;;5055464;27;92315;-74
2024/01/19 13:02:51;;;;;;;2.17;1.13;;;;;;;;;;5055454;27;92597;-75
2024/01/19 13:05:21;;;;;;;4.45;1.67;;;;;;;;;;5059127;27;93160;-74
2024/01/19 13:07:47;;;;;;;3.70;1.63;;;;;;;;;;5055250;27;93169;-75
2024/01/19 13:10:18;;;;;;;3.65;1.52;;;;;;;;;;5037017;27;93852;-75
2024/01/19 13:12:45;;;;;;;2.95;1.48;;;;;;;;;;5055423;27;92712;-74
2024/01/19 13:15:13;;;;;;;3.15;1.60;;;;;;;;;;5054894;27;92445;-74
2024/01/19 13:17:42;;;;;;;2.72;1.27;;;;;;;;;;5054582;27;93025;-74
2024/01/19 13:20:24;;;;;;;3.30;1.00;;;;;;;;;;5052906;27;94963;-75
2024/01/19 13:22:51;;;;;;;1.90;1.25;;;;;;;;;;5055330;27;92256;-74
2024/01/19 13:25:17;;;;;;;3.05;0.95;;;;;;;;;;5057902;27;93269;-74
2024/01/19 13:27:45;;;;;;;5.18;1.83;;;;;;;;;;5055389;27;92856;-75
2024/01/19 13:30:12;;;;;;;4.25;1.35;;;;;;;;;;5054638;27;92420;-74
2024/01/19 13:32:38;;;;;;;5.30;1.65;;;;;;;;;;5036381;27;93035;-74
2024/01/19 13:35:05;;;;;;;3.28;1.30;;;;;;;;;;5036924;27;92468;-74
2024/01/19 13:37:32;;;;;;;1.77;1.10;;;;;;;;;;5036372;27;91994;-74
2024/01/19 13:39:59;;;;;;;3.10;1.15;;;;;;;;;;5054689;27;92257;-74
2024/01/19 13:42:25;;;;;;;5.18;2.13;;;;;;;;;;5036105;27;93068;-74
2024/01/19 13:44:52;;;;;;;2.72;1.50;;;;;;;;;;5052601;27;94869;-74
2024/01/19 13:47:19;;;;;;;5.35;1.13;;;;;;;;;;5057805;27;95311;-74
2024/01/19 13:49:45;;;;;;;2.17;0.98;;;;;;;;;;5052929;27;92377;-74
2024/01/19 13:52:12;;;;;;;4.22;1.27;;;;;;;;;;5054345;27;92404;-74
2024/01/19 13:54:38;;;;;;;4.07;1.48;;;;;;;;;;5054497;27;92897;-74
2024/01/19 13:57:05;;;;;;;3.28;1.10;;;;;;;;;;5053711;27;92524;-74
2024/01/19 13:59:31;;;;;;;3.17;1.02;;;;;;;;;;5054319;27;92427;-74
2024/01/19 14:01:58;;;;;;;1.92;1.00;;;;;;;;;;5054358;27;91990;-75
2024/01/19 14:04:25;;;;;;;2.45;1.10;;;;;;;;;;5054804;27;92087;-75
2024/01/19 14:06:52;;;;;;;3.92;1.40;;;;;;;;;;5053704;27;92422;-75
2024/01/19 14:09:19;;;;;;;1.35;1.02;;;;;;;;;;5055876;27;94890;-74
2024/01/19 14:11:46;;;;;;;4.55;1.27;;;;;;;;;;5033069;27;97555;-74
2024/01/19 14:14:13;;;;;;;2.15;1.00;;;;;;;;;;5035133;27;92737;-75
2024/01/19 14:16:39;;;;;;;1.30;1.20;;;;;;;;;;5053522;27;92497;-74
2024/01/19 14:19:07;;;;;;;3.85;1.17;;;;;;;;;;5053391;27;92419;-75
2024/01/19 14:21:33;;;;;;;3.42;1.40;;;;;;;;;;5053205;27;93270;-74
2024/01/19 14:24:00;;;;;;;1.55;1.00;;;;;;;;;;5053450;27;92883;-75
2024/01/19 14:26:26;;;;;;;1.38;1.20;;;;;;;;;;5054572;27;91798;-75
2024/01/19 14:28:53;;;;;;;2.10;1.25;;;;;;;;;;5035504;27;93010;-74
2024/01/19 14:31:19;;;;;;;1.38;0.88;;;;;;;;;;5057112;27;93030;-74
2024/01/19 14:33:46;;;;;;;2.70;1.27;;;;;;;;;;5052036;27;94801;-74
2024/01/19 14:36:12;;;;;;;1.20;1.05;;;;;;;;;;5053637;27;92434;-74
2024/01/19 14:38:38;;;;;;;3.42;1.17;;;;;;;;;;5053959;27;92034;-74
2024/01/19 14:41:05;;;;;;;3.17;1.17;;;;;;;;;;5053859;27;92490;-74
2024/01/19 14:43:32;;;;;;;3.25;1.25;;;;;;;;;;5053273;27;92997;-75